createdAt,value
2022-09-01T00:00:54.989Z,100350.00
2022-09-01T00:06:57.482Z,100355.00
2022-09-01T00:12:59.908Z,100347.00
2022-09-01T00:19:02.766Z,100352.00
2022-09-01T00:25:06.779Z,100348.00
2022-09-01T00:31:11.495Z,100345.00
2022-09-01T00:37:13.962Z,100350.00
2022-09-01T00:43:22.146Z,100346.00
2022-09-01T00:49:27.919Z,100330.00
2022-09-01T00:55:33.511Z,100340.00
2022-09-01T01:01:37.147Z,100341.00
2022-09-01T01:07:42.721Z,100345.00
2022-09-01T01:13:59.195Z,100348.00
2022-09-01T01:20:20.368Z,100337.00
2022-09-01T01:26:23.172Z,100336.00
2022-09-01T01:32:25.767Z,100335.00
2022-09-01T01:38:29.170Z,100326.00
2022-09-01T01:44:32.619Z,100332.00
2022-09-01T01:50:38.432Z,100318.00
2022-09-01T01:56:42.205Z,100318.00
2022-09-01T02:02:49.441Z,100307.00
2022-09-01T02:08:59.432Z,100331.00
2022-09-01T02:15:02.972Z,100334.00
2022-09-01T02:21:13.886Z,100334.00
2022-09-01T02:27:23.597Z,100334.00
2022-09-01T02:33:28.787Z,100335.00
2022-09-01T02:39:34.891Z,100326.00
2022-09-01T02:45:37.780Z,100316.00
2022-09-01T02:51:40.070Z,100315.00
2022-09-01T02:57:42.425Z,100317.00
2022-09-01T03:03:44.798Z,100314.00
2022-09-01T03:09:47.111Z,100313.00
2022-09-01T03:15:50.558Z,100301.00
2022-09-01T03:21:53.040Z,100305.00
2022-09-01T03:28:03.460Z,100313.00
2022-09-01T03:34:06.988Z,100302.00
2022-09-01T03:40:16.366Z,100309.00
2022-09-01T03:46:22.182Z,100310.00
2022-09-01T03:52:30.392Z,100324.00
2022-09-01T03:58:32.897Z,100319.00
2022-09-01T04:04:36.545Z,100312.00
2022-09-01T04:10:44.712Z,100314.00
2022-09-01T04:17:05.474Z,100313.00
2022-09-01T04:23:11.379Z,100312.00
2022-09-01T04:29:13.933Z,100309.00
2022-09-01T04:35:17.375Z,100307.00
2022-09-01T04:41:26.298Z,100300.00
2022-09-01T04:47:35.716Z,100309.00
2022-09-01T04:53:48.994Z,100307.00
2022-09-01T04:59:52.188Z,100288.00
2022-09-01T05:05:54.596Z,100236.00
2022-09-01T05:12:00.109Z,100242.00
2022-09-01T05:18:10.304Z,100323.00
2022-09-01T05:24:19.470Z,100322.00
2022-09-01T05:30:21.793Z,100298.00
2022-09-01T05:36:24.513Z,100231.00
2022-09-01T05:42:30.247Z,100231.00
2022-09-01T05:48:35.372Z,100238.00
2022-09-01T05:54:38.307Z,100318.00
2022-09-01T06:00:43.030Z,100323.00
2022-09-01T06:07:06.368Z,100334.00
2022-09-01T06:13:16.196Z,100341.00
2022-09-01T06:19:21.247Z,100357.00
2022-09-01T06:25:24.229Z,100369.00
2022-09-01T06:31:34.244Z,100361.00
2022-09-01T06:37:46.395Z,100364.00
2022-09-01T06:44:01.790Z,100371.00
2022-09-01T06:50:08.840Z,100384.00
2022-09-01T06:56:13.683Z,100379.00
2022-09-01T07:02:18.865Z,100382.00
2022-09-01T07:21:42.374Z,100389.00
2022-09-01T07:28:00.362Z,100376.00
2022-09-01T07:47:20.314Z,100341.00
2022-09-01T07:53:40.558Z,100275.00
2022-09-01T07:59:47.775Z,100289.00
2022-09-01T08:05:57.976Z,100309.00
2022-09-01T08:12:02.632Z,100340.00
2022-09-01T08:18:09.090Z,100359.00
2022-09-01T08:24:14.830Z,100359.00
2022-09-01T08:30:17.515Z,100297.00
2022-09-01T08:36:24.033Z,100319.00
2022-09-01T08:42:53.202Z,100298.00
2022-09-01T08:55:58.841Z,100324.00
2022-09-01T09:02:25.292Z,100281.00
2022-09-01T09:08:47.105Z,100288.00
2022-09-01T09:15:01.504Z,100310.00
2022-09-01T09:21:14.606Z,100316.00
2022-09-01T09:27:22.762Z,100298.00
2022-09-01T09:33:51.353Z,100283.00
2022-09-01T09:40:12.622Z,100251.00
2022-09-01T09:46:27.611Z,100263.00
2022-09-01T09:52:29.866Z,100259.00
2022-09-01T09:58:40.774Z,100259.00
2022-09-01T10:04:43.170Z,100267.00
2022-09-01T10:10:58.303Z,100261.00
2022-09-01T10:17:06.476Z,100255.00
2022-09-01T10:23:15.311Z,100256.00
2022-09-01T10:29:23.359Z,100259.00
2022-09-01T10:35:35.236Z,100257.00
2022-09-01T10:41:53.298Z,100250.00
2022-09-01T10:48:30.474Z,100237.00
2022-09-01T10:54:57.279Z,100229.00
2022-09-01T11:01:40.528Z,100201.00
2022-09-01T11:07:33.488Z,100195.00
2022-09-01T11:13:50.329Z,100171.00
2022-09-01T11:20:10.525Z,100151.00
2022-09-01T11:26:35.426Z,100180.00
2022-09-01T11:32:40.857Z,100197.00
2022-09-01T11:38:58.929Z,100171.00
2022-09-01T11:45:20.796Z,100164.00
2022-09-01T11:51:24.676Z,100164.00
2022-09-01T11:57:32.971Z,100185.00
2022-09-01T12:03:37.413Z,100193.00
2022-09-01T12:09:46.853Z,100175.00
2022-09-01T12:16:17.960Z,100164.00
2022-09-01T12:22:22.776Z,100163.00
2022-09-01T12:28:30.380Z,100164.00
2022-09-01T12:34:48.326Z,100163.00
2022-09-01T12:40:56.240Z,100242.00
2022-09-01T12:47:10.940Z,100181.00
2022-09-01T12:53:16.480Z,100144.00
2022-09-01T12:59:37.281Z,100147.00
2022-09-01T13:05:51.071Z,100142.00
2022-09-01T13:12:09.970Z,100129.00
2022-09-01T13:18:12.946Z,100149.00
2022-09-01T13:24:15.575Z,100157.00
2022-09-01T13:30:21.461Z,100216.00
2022-09-01T13:42:50.257Z,100222.00
2022-09-01T13:55:22.467Z,100224.00
2022-09-01T14:01:25.321Z,100228.00
2022-09-01T14:07:27.648Z,100218.00
2022-09-01T14:13:31.537Z,100219.00
2022-09-01T14:19:34.388Z,100209.00
2022-09-01T14:25:37.949Z,100215.00
2022-09-01T14:31:40.137Z,100221.00
2022-09-01T14:37:42.510Z,100211.00
2022-09-01T14:43:44.689Z,100218.00
2022-09-01T14:49:47.112Z,100222.00
2022-09-01T14:55:51.491Z,100224.00
2022-09-01T15:01:57.526Z,100204.00
2022-09-01T15:08:00.265Z,100224.00
2022-09-01T15:14:02.842Z,100222.00
2022-09-01T15:20:24.815Z,100220.00
2022-09-01T15:26:28.218Z,100226.00
2022-09-01T15:32:30.514Z,100217.00
2022-09-01T15:38:32.915Z,100229.00
2022-09-01T15:44:36.098Z,100221.00
2022-09-01T15:50:38.319Z,100228.00
2022-09-01T15:56:40.743Z,100227.00
2022-09-01T16:02:43.485Z,100225.00
2022-09-01T16:08:45.923Z,100223.00
2022-09-01T16:14:48.524Z,100225.00
2022-09-01T16:20:56.080Z,100221.00
2022-09-01T16:26:58.458Z,100222.00
2022-09-01T16:33:05.240Z,100220.00
2022-09-01T16:39:17.054Z,100226.00
2022-09-01T16:45:22.311Z,100226.00
2022-09-01T16:51:42.895Z,100228.00
2022-09-01T16:58:12.637Z,100217.00
2022-09-01T17:04:24.133Z,100229.00
2022-09-01T17:10:41.552Z,100240.00
2022-09-01T17:16:45.441Z,100253.00
2022-09-01T17:22:52.500Z,100254.00
2022-09-01T17:29:09.824Z,100260.00
2022-09-01T17:35:37.065Z,100259.00
2022-09-01T17:41:48.310Z,100260.00
2022-09-01T17:48:06.415Z,100271.00
2022-09-01T17:54:41.412Z,100290.00
2022-09-01T18:00:58.828Z,100289.00
2022-09-01T18:07:14.834Z,100298.00
2022-09-01T18:13:36.159Z,100299.00
2022-09-01T18:19:56.626Z,100306.00
2022-09-01T18:26:09.748Z,100306.00
2022-09-01T18:32:37.042Z,100315.00
2022-09-01T18:38:43.148Z,100316.00
2022-09-01T18:45:05.932Z,100317.00
2022-09-01T18:51:34.478Z,100324.00
2022-09-01T18:57:40.731Z,100320.00
2022-09-01T19:03:42.991Z,100322.00
2022-09-01T19:09:51.437Z,100333.00
2022-09-01T19:16:32.570Z,100342.00
2022-09-01T19:22:50.150Z,100343.00
2022-09-01T19:29:01.468Z,100339.00
2022-09-01T19:35:12.212Z,100355.00
2022-09-01T19:41:33.448Z,100383.00
2022-09-01T19:47:58.265Z,100377.00
2022-09-01T19:54:28.083Z,100395.00
2022-09-01T20:01:06.040Z,100396.00
2022-09-01T20:07:22.625Z,100402.00
2022-09-01T20:13:55.683Z,100407.00
2022-09-01T20:20:01.935Z,100401.00
2022-09-01T20:26:10.983Z,100398.00
2022-09-01T20:32:22.438Z,100406.00
2022-09-01T20:38:51.098Z,100418.00
2022-09-01T20:44:57.929Z,100425.00
2022-09-01T20:51:08.173Z,100418.00
2022-09-01T20:57:10.324Z,100425.00
2022-09-01T21:03:34.216Z,100417.00
2022-09-01T21:09:42.699Z,100411.00
2022-09-01T21:15:51.419Z,100415.00
2022-09-01T21:22:05.037Z,100413.00
2022-09-01T21:28:07.430Z,100420.00
2022-09-01T21:34:12.714Z,100425.00
2022-09-01T21:40:19.498Z,100435.00
2022-09-01T21:46:21.919Z,100416.00
2022-09-01T21:52:24.648Z,100420.00
2022-09-01T21:58:26.931Z,100420.00
2022-09-01T22:04:28.876Z,100422.00
2022-09-01T22:10:32.790Z,100420.00
2022-09-01T22:16:35.283Z,100420.00
2022-09-01T22:22:38.142Z,100421.00
2022-09-01T22:28:40.279Z,100434.00
2022-09-01T22:34:43.629Z,100435.00
2022-09-01T22:40:51.590Z,100434.00
2022-09-01T22:46:53.835Z,100433.00
2022-09-01T22:52:56.187Z,100438.00
2022-09-01T22:59:04.333Z,100423.00
2022-09-01T23:05:07.462Z,100418.00
2022-09-01T23:11:10.082Z,100416.00
2022-09-01T23:17:12.490Z,100404.00
2022-09-01T23:23:15.604Z,100397.00
2022-09-01T23:29:18.356Z,100390.00
2022-09-01T23:35:20.862Z,100386.00
2022-09-01T23:41:31.233Z,100398.00
2022-09-01T23:47:33.557Z,100396.00
2022-09-01T23:53:36.254Z,100395.00
2022-09-01T23:59:38.604Z,100396.00
